sensor_id;sensor_type;location;lat;lon;timestamp;P1;durP1;ratioP1;P2;durP2;ratioP2
357;SDS011;167;47.558;7.602;2022-08-19T00:01:42;3.27;;;3.17;;
357;SDS011;167;47.558;7.602;2022-08-19T00:04:09;3.33;;;3.20;;
357;SDS011;167;47.558;7.602;2022-08-19T00:06:37;3.20;;;3.00;;
357;SDS011;167;47.558;7.602;2022-08-19T00:09:04;2.73;;;2.63;;
357;SDS011;167;47.558;7.602;2022-08-19T00:11:31;3.60;;;3.40;;
357;SDS011;167;47.558;7.602;2022-08-19T00:13:57;3.53;;;3.33;;
357;SDS011;167;47.558;7.602;2022-08-19T00:16:24;3.70;;;3.50;;
357;SDS011;167;47.558;7.602;2022-08-19T00:18:50;3.73;;;3.50;;
357;SDS011;167;47.558;7.602;2022-08-19T00:21:16;3.90;;;3.63;;
357;SDS011;167;47.558;7.602;2022-08-19T00:23:43;3.27;;;3.07;;
357;SDS011;167;47.558;7.602;2022-08-19T00:26:09;4.00;;;3.80;;
357;SDS011;167;47.558;7.602;2022-08-19T00:28:35;3.60;;;3.40;;
357;SDS011;167;47.558;7.602;2022-08-19T00:31:02;3.97;;;3.67;;
357;SDS011;167;47.558;7.602;2022-08-19T00:33:29;3.40;;;3.10;;
357;SDS011;167;47.558;7.602;2022-08-19T00:35:59;3.30;;;3.10;;
357;SDS011;167;47.558;7.602;2022-08-19T00:38:25;3.30;;;3.20;;
357;SDS011;167;47.558;7.602;2022-08-19T00:40:51;3.73;;;3.53;;
357;SDS011;167;47.558;7.602;2022-08-19T00:43:19;3.00;;;2.80;;
357;SDS011;167;47.558;7.602;2022-08-19T00:45:46;3.80;;;3.60;;
357;SDS011;167;47.558;7.602;2022-08-19T00:48:12;3.30;;;3.10;;
357;SDS011;167;47.558;7.602;2022-08-19T00:50:42;3.70;;;3.33;;
357;SDS011;167;47.558;7.602;2022-08-19T00:53:09;3.50;;;3.30;;
357;SDS011;167;47.558;7.602;2022-08-19T00:55:36;3.20;;;3.00;;
357;SDS011;167;47.558;7.602;2022-08-19T00:58:07;3.40;;;3.20;;
357;SDS011;167;47.558;7.602;2022-08-19T01:00:34;3.20;;;2.90;;
357;SDS011;167;47.558;7.602;2022-08-19T01:03:02;3.20;;;3.03;;
357;SDS011;167;47.558;7.602;2022-08-19T01:05:29;3.03;;;2.93;;
357;SDS011;167;47.558;7.602;2022-08-19T01:07:56;3.50;;;3.30;;
357;SDS011;167;47.558;7.602;2022-08-19T01:10:26;3.07;;;2.90;;
357;SDS011;167;47.558;7.602;2022-08-19T01:12:53;2.93;;;2.83;;
357;SDS011;167;47.558;7.602;2022-08-19T01:15:21;3.13;;;3.03;;
357;SDS011;167;47.558;7.602;2022-08-19T01:17:48;2.97;;;2.87;;
357;SDS011;167;47.558;7.602;2022-08-19T01:20:17;6.07;;;5.67;;
357;SDS011;167;47.558;7.602;2022-08-19T01:25:10;3.87;;;3.67;;
357;SDS011;167;47.558;7.602;2022-08-19T01:27:40;3.37;;;3.17;;
357;SDS011;167;47.558;7.602;2022-08-19T01:30:07;3.20;;;3.10;;
357;SDS011;167;47.558;7.602;2022-08-19T01:32:33;3.17;;;3.00;;
357;SDS011;167;47.558;7.602;2022-08-19T01:35:00;3.90;;;3.60;;
357;SDS011;167;47.558;7.602;2022-08-19T01:37:26;3.23;;;3.03;;
357;SDS011;167;47.558;7.602;2022-08-19T01:39:52;3.67;;;3.37;;
357;SDS011;167;47.558;7.602;2022-08-19T01:42:19;3.83;;;3.53;;
357;SDS011;167;47.558;7.602;2022-08-19T01:44:46;4.10;;;3.90;;
357;SDS011;167;47.558;7.602;2022-08-19T01:47:12;4.00;;;3.80;;
357;SDS011;167;47.558;7.602;2022-08-19T01:49:38;4.43;;;4.13;;
357;SDS011;167;47.558;7.602;2022-08-19T01:52:04;3.50;;;3.30;;
357;SDS011;167;47.558;7.602;2022-08-19T01:54:31;4.57;;;4.37;;
357;SDS011;167;47.558;7.602;2022-08-19T01:56:58;4.03;;;3.83;;
357;SDS011;167;47.558;7.602;2022-08-19T01:59:26;4.87;;;4.37;;
357;SDS011;167;47.558;7.602;2022-08-19T02:01:52;5.20;;;4.90;;
357;SDS011;167;47.558;7.602;2022-08-19T02:04:18;4.73;;;4.43;;
357;SDS011;167;47.558;7.602;2022-08-19T02:06:44;5.40;;;5.00;;
357;SDS011;167;47.558;7.602;2022-08-19T02:09:10;3.90;;;3.60;;
357;SDS011;167;47.558;7.602;2022-08-19T02:11:36;3.60;;;3.43;;
357;SDS011;167;47.558;7.602;2022-08-19T02:14:04;6.37;;;5.87;;
357;SDS011;167;47.558;7.602;2022-08-19T02:16:30;4.70;;;4.40;;
357;SDS011;167;47.558;7.602;2022-08-19T02:18:57;3.50;;;3.40;;
357;SDS011;167;47.558;7.602;2022-08-19T02:21:25;3.30;;;3.10;;
357;SDS011;167;47.558;7.602;2022-08-19T02:23:52;3.93;;;3.60;;
357;SDS011;167;47.558;7.602;2022-08-19T02:26:18;4.60;;;4.23;;
357;SDS011;167;47.558;7.602;2022-08-19T02:28:44;4.60;;;4.20;;
357;SDS011;167;47.558;7.602;2022-08-19T02:31:11;3.60;;;3.40;;
357;SDS011;167;47.558;7.602;2022-08-19T02:33:39;3.97;;;3.77;;
357;SDS011;167;47.558;7.602;2022-08-19T02:36:06;4.43;;;3.60;;
357;SDS011;167;47.558;7.602;2022-08-19T02:38:33;4.10;;;3.80;;
357;SDS011;167;47.558;7.602;2022-08-19T02:41:00;3.90;;;3.70;;
357;SDS011;167;47.558;7.602;2022-08-19T02:43:27;4.07;;;3.80;;
357;SDS011;167;47.558;7.602;2022-08-19T02:45:54;4.20;;;4.00;;
357;SDS011;167;47.558;7.602;2022-08-19T02:48:21;4.00;;;3.80;;
357;SDS011;167;47.558;7.602;2022-08-19T02:50:48;3.23;;;3.03;;
357;SDS011;167;47.558;7.602;2022-08-19T02:53:19;3.97;;;3.77;;
357;SDS011;167;47.558;7.602;2022-08-19T02:55:47;3.43;;;3.23;;
357;SDS011;167;47.558;7.602;2022-08-19T02:58:13;4.00;;;3.70;;
357;SDS011;167;47.558;7.602;2022-08-19T03:00:48;4.30;;;4.00;;
357;SDS011;167;47.558;7.602;2022-08-19T03:05:42;3.53;;;3.37;;
357;SDS011;167;47.558;7.602;2022-08-19T03:08:09;3.70;;;3.50;;
357;SDS011;167;47.558;7.602;2022-08-19T03:10:41;3.23;;;3.03;;
357;SDS011;167;47.558;7.602;2022-08-19T03:13:08;3.90;;;3.60;;
357;SDS011;167;47.558;7.602;2022-08-19T03:15:34;3.57;;;3.37;;
357;SDS011;167;47.558;7.602;2022-08-19T03:18:04;3.67;;;3.50;;
357;SDS011;167;47.558;7.602;2022-08-19T03:20:30;3.67;;;3.13;;
357;SDS011;167;47.558;7.602;2022-08-19T03:22:56;4.07;;;3.77;;
357;SDS011;167;47.558;7.602;2022-08-19T03:25:22;3.20;;;3.00;;
357;SDS011;167;47.558;7.602;2022-08-19T03:27:48;4.10;;;3.90;;
357;SDS011;167;47.558;7.602;2022-08-19T03:30:14;4.00;;;3.70;;
357;SDS011;167;47.558;7.602;2022-08-19T03:32:40;3.97;;;3.73;;
357;SDS011;167;47.558;7.602;2022-08-19T03:35:06;4.47;;;4.07;;
357;SDS011;167;47.558;7.602;2022-08-19T03:37:32;3.60;;;3.40;;
357;SDS011;167;47.558;7.602;2022-08-19T03:39:58;3.70;;;3.50;;
357;SDS011;167;47.558;7.602;2022-08-19T03:42:24;3.40;;;3.20;;
357;SDS011;167;47.558;7.602;2022-08-19T03:44:51;4.03;;;3.73;;
357;SDS011;167;47.558;7.602;2022-08-19T03:47:18;3.57;;;3.37;;
357;SDS011;167;47.558;7.602;2022-08-19T03:49:44;3.17;;;2.97;;
357;SDS011;167;47.558;7.602;2022-08-19T03:52:10;3.50;;;3.33;;
357;SDS011;167;47.558;7.602;2022-08-19T03:54:36;4.33;;;3.70;;
357;SDS011;167;47.558;7.602;2022-08-19T03:57:03;3.20;;;3.10;;
357;SDS011;167;47.558;7.602;2022-08-19T03:59:31;3.93;;;3.73;;
357;SDS011;167;47.558;7.602;2022-08-19T04:01:57;4.20;;;3.93;;
357;SDS011;167;47.558;7.602;2022-08-19T04:04:24;3.30;;;3.10;;
357;SDS011;167;47.558;7.602;2022-08-19T04:06:50;3.20;;;3.03;;
357;SDS011;167;47.558;7.602;2022-08-19T04:09:17;4.00;;;3.80;;
357;SDS011;167;47.558;7.602;2022-08-19T04:11:44;3.80;;;3.60;;
357;SDS011;167;47.558;7.602;2022-08-19T04:14:12;2.63;;;2.43;;
357;SDS011;167;47.558;7.602;2022-08-19T04:16:39;3.63;;;3.40;;
357;SDS011;167;47.558;7.602;2022-08-19T04:19:05;3.07;;;2.93;;
357;SDS011;167;47.558;7.602;2022-08-19T04:21:31;4.20;;;3.90;;
357;SDS011;167;47.558;7.602;2022-08-19T04:23:58;3.70;;;3.50;;
357;SDS011;167;47.558;7.602;2022-08-19T04:26:25;3.10;;;3.00;;
357;SDS011;167;47.558;7.602;2022-08-19T04:28:51;3.40;;;3.30;;
357;SDS011;167;47.558;7.602;2022-08-19T04:31:19;3.70;;;3.40;;
357;SDS011;167;47.558;7.602;2022-08-19T04:33:45;3.60;;;3.50;;
357;SDS011;167;47.558;7.602;2022-08-19T04:36:18;3.53;;;3.33;;
357;SDS011;167;47.558;7.602;2022-08-19T04:38:45;6.07;;;5.47;;
357;SDS011;167;47.558;7.602;2022-08-19T04:41:11;3.80;;;3.50;;
357;SDS011;167;47.558;7.602;2022-08-19T04:43:56;3.87;;;3.67;;
357;SDS011;167;47.558;7.602;2022-08-19T04:46:22;4.23;;;3.93;;
357;SDS011;167;47.558;7.602;2022-08-19T04:48:48;3.40;;;3.30;;
357;SDS011;167;47.558;7.602;2022-08-19T04:51:14;3.33;;;3.13;;
357;SDS011;167;47.558;7.602;2022-08-19T04:53:41;4.13;;;3.93;;
357;SDS011;167;47.558;7.602;2022-08-19T04:56:09;3.70;;;3.50;;
357;SDS011;167;47.558;7.602;2022-08-19T04:58:35;4.70;;;4.40;;
357;SDS011;167;47.558;7.602;2022-08-19T05:01:02;4.17;;;3.97;;
357;SDS011;167;47.558;7.602;2022-08-19T05:03:28;4.20;;;4.00;;
357;SDS011;167;47.558;7.602;2022-08-19T05:05:57;3.90;;;3.70;;
357;SDS011;167;47.558;7.602;2022-08-19T05:08:23;4.30;;;4.10;;
357;SDS011;167;47.558;7.602;2022-08-19T05:10:50;3.77;;;3.57;;
357;SDS011;167;47.558;7.602;2022-08-19T05:13:17;3.27;;;3.10;;
357;SDS011;167;47.558;7.602;2022-08-19T05:15:44;4.17;;;3.87;;
357;SDS011;167;47.558;7.602;2022-08-19T05:18:10;3.57;;;3.37;;
357;SDS011;167;47.558;7.602;2022-08-19T05:20:55;3.70;;;3.40;;
357;SDS011;167;47.558;7.602;2022-08-19T05:23:39;3.97;;;3.60;;
357;SDS011;167;47.558;7.602;2022-08-19T05:26:06;4.30;;;4.00;;
357;SDS011;167;47.558;7.602;2022-08-19T05:28:34;4.23;;;3.83;;
357;SDS011;167;47.558;7.602;2022-08-19T05:31:00;4.10;;;3.90;;
357;SDS011;167;47.558;7.602;2022-08-19T05:33:26;4.70;;;4.40;;
357;SDS011;167;47.558;7.602;2022-08-19T05:35:52;5.37;;;4.97;;
357;SDS011;167;47.558;7.602;2022-08-19T05:38:19;4.27;;;4.07;;
357;SDS011;167;47.558;7.602;2022-08-19T05:40:45;4.30;;;4.10;;
357;SDS011;167;47.558;7.602;2022-08-19T05:43:13;4.47;;;4.17;;
357;SDS011;167;47.558;7.602;2022-08-19T05:45:42;5.73;;;5.23;;
357;SDS011;167;47.558;7.602;2022-08-19T05:48:12;4.70;;;4.40;;
357;SDS011;167;47.558;7.602;2022-08-19T05:50:39;5.50;;;5.10;;
357;SDS011;167;47.558;7.602;2022-08-19T05:53:05;5.23;;;4.93;;
357;SDS011;167;47.558;7.602;2022-08-19T05:55:31;5.10;;;4.80;;
357;SDS011;167;47.558;7.602;2022-08-19T05:57:58;4.77;;;4.47;;
357;SDS011;167;47.558;7.602;2022-08-19T06:00:24;4.33;;;4.13;;
357;SDS011;167;47.558;7.602;2022-08-19T06:02:50;4.93;;;4.63;;
357;SDS011;167;47.558;7.602;2022-08-19T06:05:16;4.17;;;3.97;;
357;SDS011;167;47.558;7.602;2022-08-19T06:07:42;3.97;;;3.77;;
357;SDS011;167;47.558;7.602;2022-08-19T06:10:10;4.47;;;4.27;;
357;SDS011;167;47.558;7.602;2022-08-19T06:12:36;4.80;;;4.40;;
357;SDS011;167;47.558;7.602;2022-08-19T06:15:04;4.63;;;4.30;;
357;SDS011;167;47.558;7.602;2022-08-19T06:17:30;4.87;;;4.57;;
357;SDS011;167;47.558;7.602;2022-08-19T06:19:56;4.83;;;4.43;;
357;SDS011;167;47.558;7.602;2022-08-19T06:22:23;4.67;;;4.37;;
357;SDS011;167;47.558;7.602;2022-08-19T06:24:49;6.30;;;5.90;;
357;SDS011;167;47.558;7.602;2022-08-19T06:27:17;5.40;;;5.10;;
357;SDS011;167;47.558;7.602;2022-08-19T06:29:43;4.83;;;4.37;;
357;SDS011;167;47.558;7.602;2022-08-19T06:32:11;4.73;;;4.53;;
357;SDS011;167;47.558;7.602;2022-08-19T06:34:37;4.97;;;4.67;;
357;SDS011;167;47.558;7.602;2022-08-19T06:37:04;4.33;;;4.13;;
357;SDS011;167;47.558;7.602;2022-08-19T06:39:32;4.60;;;4.30;;
357;SDS011;167;47.558;7.602;2022-08-19T06:41:59;4.70;;;4.40;;
357;SDS011;167;47.558;7.602;2022-08-19T06:44:26;5.97;;;5.57;;
357;SDS011;167;47.558;7.602;2022-08-19T06:46:53;5.63;;;5.20;;
357;SDS011;167;47.558;7.602;2022-08-19T06:49:20;5.50;;;5.20;;
357;SDS011;167;47.558;7.602;2022-08-19T06:51:46;6.27;;;5.87;;
357;SDS011;167;47.558;7.602;2022-08-19T06:54:13;5.53;;;5.20;;
357;SDS011;167;47.558;7.602;2022-08-19T06:56:40;5.50;;;5.20;;
357;SDS011;167;47.558;7.602;2022-08-19T06:59:10;5.10;;;4.80;;
357;SDS011;167;47.558;7.602;2022-08-19T07:01:38;5.10;;;4.63;;
357;SDS011;167;47.558;7.602;2022-08-19T07:04:05;5.30;;;5.00;;
357;SDS011;167;47.558;7.602;2022-08-19T07:06:31;5.77;;;5.37;;
357;SDS011;167;47.558;7.602;2022-08-19T07:08:57;5.50;;;5.20;;
357;SDS011;167;47.558;7.602;2022-08-19T07:11:23;5.70;;;5.17;;
357;SDS011;167;47.558;7.602;2022-08-19T07:13:50;5.63;;;5.13;;
357;SDS011;167;47.558;7.602;2022-08-19T07:16:17;4.77;;;4.47;;
357;SDS011;167;47.558;7.602;2022-08-19T07:18:45;5.37;;;5.07;;
357;SDS011;167;47.558;7.602;2022-08-19T07:21:13;5.90;;;5.50;;
357;SDS011;167;47.558;7.602;2022-08-19T07:23:39;5.90;;;5.50;;
357;SDS011;167;47.558;7.602;2022-08-19T07:26:10;6.80;;;6.30;;
357;SDS011;167;47.558;7.602;2022-08-19T07:28:36;5.63;;;5.20;;
357;SDS011;167;47.558;7.602;2022-08-19T07:31:04;6.07;;;5.70;;
357;SDS011;167;47.558;7.602;2022-08-19T07:33:31;6.10;;;5.70;;
357;SDS011;167;47.558;7.602;2022-08-19T07:35:57;5.60;;;5.20;;
357;SDS011;167;47.558;7.602;2022-08-19T07:38:24;6.17;;;5.80;;
357;SDS011;167;47.558;7.602;2022-08-19T07:40:50;6.07;;;5.67;;
357;SDS011;167;47.558;7.602;2022-08-19T07:43:17;6.30;;;5.83;;
357;SDS011;167;47.558;7.602;2022-08-19T07:45:50;5.40;;;5.10;;
357;SDS011;167;47.558;7.602;2022-08-19T07:48:16;7.50;;;7.00;;
357;SDS011;167;47.558;7.602;2022-08-19T07:50:42;6.40;;;6.00;;
357;SDS011;167;47.558;7.602;2022-08-19T07:53:08;6.90;;;6.50;;
357;SDS011;167;47.558;7.602;2022-08-19T07:55:34;6.77;;;6.37;;
357;SDS011;167;47.558;7.602;2022-08-19T07:58:00;7.17;;;6.63;;
357;SDS011;167;47.558;7.602;2022-08-19T08:00:26;6.80;;;6.20;;
357;SDS011;167;47.558;7.602;2022-08-19T08:02:52;6.07;;;5.73;;
357;SDS011;167;47.558;7.602;2022-08-19T08:05:18;5.73;;;5.33;;
357;SDS011;167;47.558;7.602;2022-08-19T08:08:03;7.00;;;6.50;;
357;SDS011;167;47.558;7.602;2022-08-19T08:10:48;7.70;;;7.20;;
357;SDS011;167;47.558;7.602;2022-08-19T08:13:14;7.90;;;7.10;;
357;SDS011;167;47.558;7.602;2022-08-19T08:15:42;6.93;;;6.53;;
357;SDS011;167;47.558;7.602;2022-08-19T08:18:10;6.83;;;6.33;;
357;SDS011;167;47.558;7.602;2022-08-19T08:20:36;7.33;;;6.87;;
357;SDS011;167;47.558;7.602;2022-08-19T08:23:02;7.23;;;6.83;;
357;SDS011;167;47.558;7.602;2022-08-19T08:25:47;7.57;;;7.07;;
357;SDS011;167;47.558;7.602;2022-08-19T08:28:14;7.03;;;6.50;;
357;SDS011;167;47.558;7.602;2022-08-19T08:30:40;7.60;;;7.10;;
357;SDS011;167;47.558;7.602;2022-08-19T08:33:08;6.93;;;6.50;;
357;SDS011;167;47.558;7.602;2022-08-19T08:35:34;6.57;;;6.17;;
357;SDS011;167;47.558;7.602;2022-08-19T08:38:00;8.50;;;7.93;;
357;SDS011;167;47.558;7.602;2022-08-19T08:40:39;7.90;;;7.20;;
357;SDS011;167;47.558;7.602;2022-08-19T08:45:44;7.60;;;7.10;;
357;SDS011;167;47.558;7.602;2022-08-19T08:48:18;7.50;;;7.10;;
357;SDS011;167;47.558;7.602;2022-08-19T08:50:45;7.57;;;7.07;;
357;SDS011;167;47.558;7.602;2022-08-19T08:53:13;7.87;;;7.37;;
357;SDS011;167;47.558;7.602;2022-08-19T08:55:40;7.90;;;7.40;;
357;SDS011;167;47.558;7.602;2022-08-19T08:58:09;7.87;;;7.37;;
357;SDS011;167;47.558;7.602;2022-08-19T09:00:43;7.43;;;6.93;;
357;SDS011;167;47.558;7.602;2022-08-19T09:03:18;8.13;;;7.53;;
357;SDS011;167;47.558;7.602;2022-08-19T09:05:49;8.37;;;7.77;;
357;SDS011;167;47.558;7.602;2022-08-19T09:11:06;6.80;;;6.40;;
357;SDS011;167;47.558;7.602;2022-08-19T09:13:36;7.87;;;7.37;;
357;SDS011;167;47.558;7.602;2022-08-19T09:16:08;7.80;;;7.30;;
357;SDS011;167;47.558;7.602;2022-08-19T09:18:43;8.30;;;7.60;;
357;SDS011;167;47.558;7.602;2022-08-19T09:21:11;8.40;;;7.80;;
357;SDS011;167;47.558;7.602;2022-08-19T09:23:38;9.23;;;8.47;;
357;SDS011;167;47.558;7.602;2022-08-19T09:26:08;9.10;;;8.50;;
357;SDS011;167;47.558;7.602;2022-08-19T09:28:34;8.93;;;8.13;;
357;SDS011;167;47.558;7.602;2022-08-19T09:31:00;10.00;;;9.37;;
357;SDS011;167;47.558;7.602;2022-08-19T09:33:26;8.60;;;8.00;;
357;SDS011;167;47.558;7.602;2022-08-19T09:36:01;7.60;;;7.10;;
357;SDS011;167;47.558;7.602;2022-08-19T09:38:28;9.20;;;8.60;;
357;SDS011;167;47.558;7.602;2022-08-19T09:40:54;9.33;;;8.63;;
357;SDS011;167;47.558;7.602;2022-08-19T09:43:20;9.23;;;8.63;;
357;SDS011;167;47.558;7.602;2022-08-19T09:45:46;9.10;;;8.50;;
357;SDS011;167;47.558;7.602;2022-08-19T09:48:12;9.50;;;8.80;;
357;SDS011;167;47.558;7.602;2022-08-19T09:50:38;9.47;;;8.87;;
357;SDS011;167;47.558;7.602;2022-08-19T09:53:04;10.50;;;9.70;;
357;SDS011;167;47.558;7.602;2022-08-19T09:55:32;10.33;;;9.67;;
357;SDS011;167;47.558;7.602;2022-08-19T09:58:01;10.60;;;10.00;;
357;SDS011;167;47.558;7.602;2022-08-19T10:00:28;9.60;;;8.80;;
357;SDS011;167;47.558;7.602;2022-08-19T10:02:54;10.47;;;9.73;;
357;SDS011;167;47.558;7.602;2022-08-19T10:05:20;9.47;;;8.87;;
357;SDS011;167;47.558;7.602;2022-08-19T10:08:04;10.83;;;10.13;;
357;SDS011;167;47.558;7.602;2022-08-19T10:10:34;10.03;;;9.33;;
357;SDS011;167;47.558;7.602;2022-08-19T10:13:00;11.77;;;10.90;;
357;SDS011;167;47.558;7.602;2022-08-19T10:15:26;10.87;;;9.97;;
357;SDS011;167;47.558;7.602;2022-08-19T10:17:52;10.23;;;9.40;;
357;SDS011;167;47.558;7.602;2022-08-19T10:20:18;10.40;;;9.70;;
357;SDS011;167;47.558;7.602;2022-08-19T10:22:44;11.50;;;10.60;;
357;SDS011;167;47.558;7.602;2022-08-19T10:25:10;10.50;;;9.80;;
357;SDS011;167;47.558;7.602;2022-08-19T10:27:37;12.07;;;11.07;;
357;SDS011;167;47.558;7.602;2022-08-19T10:30:03;10.47;;;9.77;;
357;SDS011;167;47.558;7.602;2022-08-19T10:32:31;12.43;;;11.43;;
357;SDS011;167;47.558;7.602;2022-08-19T10:34:57;11.67;;;10.77;;
357;SDS011;167;47.558;7.602;2022-08-19T10:37:23;12.00;;;11.10;;
357;SDS011;167;47.558;7.602;2022-08-19T10:39:50;12.77;;;11.87;;
357;SDS011;167;47.558;7.602;2022-08-19T10:42:16;13.20;;;12.10;;
357;SDS011;167;47.558;7.602;2022-08-19T10:44:43;11.80;;;11.00;;
357;SDS011;167;47.558;7.602;2022-08-19T10:47:11;12.80;;;11.77;;
357;SDS011;167;47.558;7.602;2022-08-19T10:49:37;11.97;;;11.07;;
357;SDS011;167;47.558;7.602;2022-08-19T10:52:23;12.20;;;11.30;;
357;SDS011;167;47.558;7.602;2022-08-19T10:54:58;12.30;;;11.40;;
357;SDS011;167;47.558;7.602;2022-08-19T10:57:43;11.87;;;11.07;;
357;SDS011;167;47.558;7.602;2022-08-19T11:00:10;12.40;;;11.60;;
357;SDS011;167;47.558;7.602;2022-08-19T11:02:36;13.87;;;12.43;;
357;SDS011;167;47.558;7.602;2022-08-19T11:05:03;12.57;;;11.67;;
357;SDS011;167;47.558;7.602;2022-08-19T11:07:29;12.47;;;11.57;;
357;SDS011;167;47.558;7.602;2022-08-19T11:09:55;13.93;;;13.03;;
357;SDS011;167;47.558;7.602;2022-08-19T11:12:21;13.93;;;12.73;;
357;SDS011;167;47.558;7.602;2022-08-19T11:14:47;13.57;;;12.37;;
357;SDS011;167;47.558;7.602;2022-08-19T11:17:15;13.47;;;12.57;;
357;SDS011;167;47.558;7.602;2022-08-19T11:19:41;13.83;;;12.77;;
357;SDS011;167;47.558;7.602;2022-08-19T11:22:08;13.40;;;12.40;;
357;SDS011;167;47.558;7.602;2022-08-19T11:24:35;13.27;;;12.23;;
357;SDS011;167;47.558;7.602;2022-08-19T11:27:05;12.73;;;11.83;;
357;SDS011;167;47.558;7.602;2022-08-19T11:29:32;12.60;;;11.40;;
357;SDS011;167;47.558;7.602;2022-08-19T11:31:59;12.13;;;11.17;;
357;SDS011;167;47.558;7.602;2022-08-19T11:34:26;11.80;;;11.00;;
357;SDS011;167;47.558;7.602;2022-08-19T11:36:53;12.80;;;11.83;;
357;SDS011;167;47.558;7.602;2022-08-19T11:39:22;12.03;;;11.23;;
357;SDS011;167;47.558;7.602;2022-08-19T11:41:49;12.77;;;11.87;;
357;SDS011;167;47.558;7.602;2022-08-19T11:44:15;12.83;;;12.03;;
357;SDS011;167;47.558;7.602;2022-08-19T11:46:42;11.90;;;11.10;;
357;SDS011;167;47.558;7.602;2022-08-19T11:49:12;13.97;;;13.03;;
357;SDS011;167;47.558;7.602;2022-08-19T11:51:39;12.97;;;12.03;;
357;SDS011;167;47.558;7.602;2022-08-19T11:54:06;12.97;;;11.93;;
357;SDS011;167;47.558;7.602;2022-08-19T11:56:33;13.23;;;12.23;;
357;SDS011;167;47.558;7.602;2022-08-19T11:59:00;13.37;;;12.37;;
357;SDS011;167;47.558;7.602;2022-08-19T12:01:26;14.77;;;13.43;;
357;SDS011;167;47.558;7.602;2022-08-19T12:03:52;14.60;;;13.50;;
357;SDS011;167;47.558;7.602;2022-08-19T12:06:20;14.30;;;13.30;;
357;SDS011;167;47.558;7.602;2022-08-19T12:08:54;13.57;;;12.37;;
357;SDS011;167;47.558;7.602;2022-08-19T12:11:20;14.20;;;13.20;;
357;SDS011;167;47.558;7.602;2022-08-19T12:13:46;13.60;;;12.70;;
357;SDS011;167;47.558;7.602;2022-08-19T12:16:17;14.20;;;13.10;;
357;SDS011;167;47.558;7.602;2022-08-19T12:18:43;12.83;;;11.83;;
357;SDS011;167;47.558;7.602;2022-08-19T12:21:12;13.10;;;12.13;;
357;SDS011;167;47.558;7.602;2022-08-19T12:23:39;12.60;;;11.70;;
357;SDS011;167;47.558;7.602;2022-08-19T12:26:05;14.23;;;13.03;;
357;SDS011;167;47.558;7.602;2022-08-19T12:28:31;12.20;;;11.17;;
357;SDS011;167;47.558;7.602;2022-08-19T12:30:57;16.03;;;11.53;;
357;SDS011;167;47.558;7.602;2022-08-19T12:33:23;13.90;;;13.00;;
357;SDS011;167;47.558;7.602;2022-08-19T12:35:52;13.83;;;12.93;;
357;SDS011;167;47.558;7.602;2022-08-19T12:38:18;11.57;;;10.87;;
357;SDS011;167;47.558;7.602;2022-08-19T12:40:47;13.03;;;11.93;;
357;SDS011;167;47.558;7.602;2022-08-19T12:43:14;12.50;;;11.70;;
357;SDS011;167;47.558;7.602;2022-08-19T12:45:41;13.83;;;12.97;;
357;SDS011;167;47.558;7.602;2022-08-19T12:48:07;11.73;;;11.03;;
357;SDS011;167;47.558;7.602;2022-08-19T12:50:34;11.00;;;10.20;;
357;SDS011;167;47.558;7.602;2022-08-19T12:53:00;13.07;;;12.17;;
357;SDS011;167;47.558;7.602;2022-08-19T12:55:26;14.20;;;13.10;;
357;SDS011;167;47.558;7.602;2022-08-19T12:57:54;13.43;;;12.53;;
357;SDS011;167;47.558;7.602;2022-08-19T13:00:20;14.17;;;13.23;;
357;SDS011;167;47.558;7.602;2022-08-19T13:02:47;13.67;;;12.67;;
357;SDS011;167;47.558;7.602;2022-08-19T13:05:17;12.20;;;11.40;;
357;SDS011;167;47.558;7.602;2022-08-19T13:07:45;12.40;;;11.60;;
357;SDS011;167;47.558;7.602;2022-08-19T13:10:13;12.57;;;11.83;;
357;SDS011;167;47.558;7.602;2022-08-19T13:12:40;13.33;;;12.33;;
357;SDS011;167;47.558;7.602;2022-08-19T13:15:07;13.87;;;13.07;;
357;SDS011;167;47.558;7.602;2022-08-19T13:17:33;13.17;;;12.27;;
357;SDS011;167;47.558;7.602;2022-08-19T13:20:00;14.50;;;13.50;;
357;SDS011;167;47.558;7.602;2022-08-19T13:22:26;14.37;;;13.37;;
357;SDS011;167;47.558;7.602;2022-08-19T13:24:52;15.53;;;14.53;;
357;SDS011;167;47.558;7.602;2022-08-19T13:27:18;14.90;;;13.70;;
357;SDS011;167;47.558;7.602;2022-08-19T13:29:44;14.30;;;13.30;;
357;SDS011;167;47.558;7.602;2022-08-19T13:32:29;13.90;;;13.00;;
357;SDS011;167;47.558;7.602;2022-08-19T13:35:15;14.30;;;13.40;;
357;SDS011;167;47.558;7.602;2022-08-19T13:37:41;14.23;;;13.33;;
357;SDS011;167;47.558;7.602;2022-08-19T13:40:14;14.67;;;13.67;;
357;SDS011;167;47.558;7.602;2022-08-19T13:42:43;14.47;;;13.37;;
357;SDS011;167;47.558;7.602;2022-08-19T13:45:09;14.50;;;13.57;;
357;SDS011;167;47.558;7.602;2022-08-19T13:47:36;14.33;;;13.30;;
357;SDS011;167;47.558;7.602;2022-08-19T13:50:09;16.07;;;14.83;;
357;SDS011;167;47.558;7.602;2022-08-19T13:52:36;15.97;;;14.80;;
357;SDS011;167;47.558;7.602;2022-08-19T13:55:02;17.63;;;16.43;;
357;SDS011;167;47.558;7.602;2022-08-19T13:57:29;16.57;;;15.30;;
357;SDS011;167;47.558;7.602;2022-08-19T13:59:55;17.30;;;15.93;;
357;SDS011;167;47.558;7.602;2022-08-19T14:02:21;17.57;;;16.27;;
357;SDS011;167;47.558;7.602;2022-08-19T14:04:47;16.10;;;14.80;;
357;SDS011;167;47.558;7.602;2022-08-19T14:07:13;16.67;;;15.30;;
357;SDS011;167;47.558;7.602;2022-08-19T14:09:39;15.80;;;14.70;;
357;SDS011;167;47.558;7.602;2022-08-19T14:12:05;16.90;;;15.47;;
357;SDS011;167;47.558;7.602;2022-08-19T14:14:31;16.17;;;14.97;;
357;SDS011;167;47.558;7.602;2022-08-19T14:16:57;17.20;;;15.90;;
357;SDS011;167;47.558;7.602;2022-08-19T14:19:24;17.83;;;16.47;;
357;SDS011;167;47.558;7.602;2022-08-19T14:21:50;17.37;;;16.00;;
357;SDS011;167;47.558;7.602;2022-08-19T14:24:16;15.20;;;14.10;;
357;SDS011;167;47.558;7.602;2022-08-19T14:26:42;15.03;;;13.83;;
357;SDS011;167;47.558;7.602;2022-08-19T14:29:08;16.97;;;15.70;;
357;SDS011;167;47.558;7.602;2022-08-19T14:31:34;14.50;;;13.40;;
357;SDS011;167;47.558;7.602;2022-08-19T14:34:00;15.23;;;14.10;;
357;SDS011;167;47.558;7.602;2022-08-19T14:36:26;15.93;;;14.67;;
357;SDS011;167;47.558;7.602;2022-08-19T14:38:52;15.07;;;13.97;;
357;SDS011;167;47.558;7.602;2022-08-19T14:41:22;16.40;;;15.23;;
357;SDS011;167;47.558;7.602;2022-08-19T14:43:50;14.67;;;13.67;;
357;SDS011;167;47.558;7.602;2022-08-19T14:46:18;15.00;;;14.00;;
357;SDS011;167;47.558;7.602;2022-08-19T14:48:47;13.17;;;12.27;;
357;SDS011;167;47.558;7.602;2022-08-19T14:51:14;13.60;;;12.70;;
357;SDS011;167;47.558;7.602;2022-08-19T14:53:40;13.27;;;12.47;;
357;SDS011;167;47.558;7.602;2022-08-19T14:56:07;11.40;;;10.60;;
357;SDS011;167;47.558;7.602;2022-08-19T14:58:33;10.40;;;9.80;;
357;SDS011;167;47.558;7.602;2022-08-19T15:01:00;12.17;;;11.37;;
357;SDS011;167;47.558;7.602;2022-08-19T15:03:26;8.87;;;8.37;;
357;SDS011;167;47.558;7.602;2022-08-19T15:05:52;9.50;;;8.90;;
357;SDS011;167;47.558;7.602;2022-08-19T15:08:19;7.80;;;7.30;;
357;SDS011;167;47.558;7.602;2022-08-19T15:10:49;8.50;;;8.00;;
357;SDS011;167;47.558;7.602;2022-08-19T15:13:15;8.10;;;7.60;;
357;SDS011;167;47.558;7.602;2022-08-19T15:15:41;8.27;;;7.70;;
357;SDS011;167;47.558;7.602;2022-08-19T15:18:07;7.03;;;6.63;;
357;SDS011;167;47.558;7.602;2022-08-19T15:20:36;7.83;;;7.33;;
357;SDS011;167;47.558;7.602;2022-08-19T15:23:03;7.43;;;7.03;;
357;SDS011;167;47.558;7.602;2022-08-19T15:25:29;7.57;;;7.07;;
357;SDS011;167;47.558;7.602;2022-08-19T15:27:55;7.70;;;7.20;;
357;SDS011;167;47.558;7.602;2022-08-19T15:30:22;9.30;;;8.70;;
357;SDS011;167;47.558;7.602;2022-08-19T15:32:49;8.80;;;8.23;;
357;SDS011;167;47.558;7.602;2022-08-19T15:35:15;9.83;;;9.17;;
357;SDS011;167;47.558;7.602;2022-08-19T15:37:43;10.10;;;9.40;;
357;SDS011;167;47.558;7.602;2022-08-19T15:40:10;10.30;;;9.60;;
357;SDS011;167;47.558;7.602;2022-08-19T15:42:37;10.43;;;9.40;;
357;SDS011;167;47.558;7.602;2022-08-19T15:45:04;13.17;;;12.07;;
357;SDS011;167;47.558;7.602;2022-08-19T15:47:30;16.03;;;14.43;;